Terminal Aerodrome Forecast
Issued by NWS Topeka, KS

Home | Current Version | Previous Version | Graphics & Text | Print | Product List | Glossary On
Versions: 1 2 3 4 5 6 7 8 9 10 11 12 13 14 15 16 17 18 19 20 21 22
000
FTUS43 KTOP 211131 CCA
TAFTOP
TAF COR
KTOP 211131Z 2112/2212 27007KT P6SM OVC009
      TEMPO 2113/2115 OVC011
     FM211500 29006KT P6SM SCT008 BKN015
     FM211800 29006KT P6SM BKN040
     FM212000 28005KT P6SM FEW250=

USA.gov is the U.S. government's official web portal to all federal, state and local government web resources and services.